sensor_id;sensor_type;location;lat;lon;timestamp;temperature;humidity
11122;DHT22;5615;49.304;10.576;2022-11-20T00:01:14;0.50;99.90
11122;DHT22;5615;49.304;10.576;2022-11-20T00:03:42;0.50;99.90
11122;DHT22;5615;49.304;10.576;2022-11-20T00:06:12;0.50;99.90
11122;DHT22;5615;49.304;10.576;2022-11-20T00:08:39;0.50;99.90
11122;DHT22;5615;49.304;10.576;2022-11-20T00:11:07;0.50;99.90
11122;DHT22;5615;49.304;10.576;2022-11-20T00:13:34;0.50;99.90
11122;DHT22;5615;49.304;10.576;2022-11-20T00:16:03;0.50;99.90
11122;DHT22;5615;49.304;10.576;2022-11-20T00:18:30;0.50;99.90
11122;DHT22;5615;49.304;10.576;2022-11-20T00:21:01;0.50;99.90
11122;DHT22;5615;49.304;10.576;2022-11-20T00:23:29;0.50;99.90
11122;DHT22;5615;49.304;10.576;2022-11-20T00:25:56;0.50;99.90
11122;DHT22;5615;49.304;10.576;2022-11-20T00:28:22;0.50;99.90
11122;DHT22;5615;49.304;10.576;2022-11-20T00:30:49;0.50;99.90
11122;DHT22;5615;49.304;10.576;2022-11-20T00:33:16;0.60;99.90
11122;DHT22;5615;49.304;10.576;2022-11-20T00:35:43;0.50;99.90
11122;DHT22;5615;49.304;10.576;2022-11-20T00:38:09;0.60;99.90
11122;DHT22;5615;49.304;10.576;2022-11-20T00:40:37;0.50;99.90
11122;DHT22;5615;49.304;10.576;2022-11-20T00:43:04;0.60;99.90
11122;DHT22;5615;49.304;10.576;2022-11-20T00:45:30;0.50;99.90
11122;DHT22;5615;49.304;10.576;2022-11-20T00:47:57;0.50;99.90
11122;DHT22;5615;49.304;10.576;2022-11-20T00:50:24;0.50;99.90
11122;DHT22;5615;49.304;10.576;2022-11-20T00:52:50;0.50;99.90
11122;DHT22;5615;49.304;10.576;2022-11-20T00:55:17;0.50;99.90
11122;DHT22;5615;49.304;10.576;2022-11-20T00:57:45;0.50;99.90
11122;DHT22;5615;49.304;10.576;2022-11-20T01:00:11;0.50;99.90
11122;DHT22;5615;49.304;10.576;2022-11-20T01:02:38;0.50;99.90
11122;DHT22;5615;49.304;10.576;2022-11-20T01:05:05;0.50;99.90
11122;DHT22;5615;49.304;10.576;2022-11-20T01:07:32;0.50;99.90
11122;DHT22;5615;49.304;10.576;2022-11-20T01:09:58;0.50;99.90
11122;DHT22;5615;49.304;10.576;2022-11-20T01:12:25;0.50;99.90
11122;DHT22;5615;49.304;10.576;2022-11-20T01:14:53;0.60;99.90
11122;DHT22;5615;49.304;10.576;2022-11-20T01:17:20;0.50;99.90
11122;DHT22;5615;49.304;10.576;2022-11-20T01:19:48;0.60;99.90
11122;DHT22;5615;49.304;10.576;2022-11-20T01:22:15;0.60;99.90
11122;DHT22;5615;49.304;10.576;2022-11-20T01:24:42;0.60;99.90
11122;DHT22;5615;49.304;10.576;2022-11-20T01:27:08;0.60;99.90
11122;DHT22;5615;49.304;10.576;2022-11-20T01:29:35;0.60;99.90
11122;DHT22;5615;49.304;10.576;2022-11-20T01:32:04;0.60;99.90
11122;DHT22;5615;49.304;10.576;2022-11-20T01:34:31;0.60;99.90
11122;DHT22;5615;49.304;10.576;2022-11-20T01:36:57;0.70;99.90
11122;DHT22;5615;49.304;10.576;2022-11-20T01:39:25;0.70;99.90
11122;DHT22;5615;49.304;10.576;2022-11-20T01:41:53;0.70;99.90
11122;DHT22;5615;49.304;10.576;2022-11-20T01:44:51;0.70;99.90
11122;DHT22;5615;49.304;10.576;2022-11-20T01:47:22;0.70;99.90
11122;DHT22;5615;49.304;10.576;2022-11-20T01:49:54;0.70;99.90
11122;DHT22;5615;49.304;10.576;2022-11-20T01:52:24;0.70;99.90
11122;DHT22;5615;49.304;10.576;2022-11-20T01:54:54;0.70;99.90
11122;DHT22;5615;49.304;10.576;2022-11-20T01:57:23;0.70;99.90
11122;DHT22;5615;49.304;10.576;2022-11-20T01:59:58;0.80;99.90
11122;DHT22;5615;49.304;10.576;2022-11-20T02:02:28;0.80;99.90
11122;DHT22;5615;49.304;10.576;2022-11-20T02:04:57;0.80;99.90
11122;DHT22;5615;49.304;10.576;2022-11-20T02:07:25;0.80;99.90
11122;DHT22;5615;49.304;10.576;2022-11-20T02:09:51;0.80;99.90
11122;DHT22;5615;49.304;10.576;2022-11-20T02:12:18;0.90;99.90
11122;DHT22;5615;49.304;10.576;2022-11-20T02:14:59;0.90;99.90
11122;DHT22;5615;49.304;10.576;2022-11-20T02:17:27;0.90;99.90
11122;DHT22;5615;49.304;10.576;2022-11-20T02:19:54;0.90;99.90
11122;DHT22;5615;49.304;10.576;2022-11-20T02:22:24;1.00;99.90
11122;DHT22;5615;49.304;10.576;2022-11-20T02:24:56;0.90;99.90
11122;DHT22;5615;49.304;10.576;2022-11-20T02:27:26;0.90;99.90
11122;DHT22;5615;49.304;10.576;2022-11-20T02:29:54;0.90;99.90
11122;DHT22;5615;49.304;10.576;2022-11-20T02:32:25;0.90;99.90
11122;DHT22;5615;49.304;10.576;2022-11-20T02:34:52;1.00;99.90
11122;DHT22;5615;49.304;10.576;2022-11-20T02:37:19;1.00;99.90
11122;DHT22;5615;49.304;10.576;2022-11-20T02:39:49;1.00;99.90
11122;DHT22;5615;49.304;10.576;2022-11-20T02:42:18;1.00;99.90
11122;DHT22;5615;49.304;10.576;2022-11-20T02:44:44;1.00;99.90
11122;DHT22;5615;49.304;10.576;2022-11-20T02:47:11;1.00;99.90
11122;DHT22;5615;49.304;10.576;2022-11-20T02:49:38;1.00;99.90
11122;DHT22;5615;49.304;10.576;2022-11-20T02:52:04;1.10;99.90
11122;DHT22;5615;49.304;10.576;2022-11-20T02:54:31;1.00;99.90
11122;DHT22;5615;49.304;10.576;2022-11-20T02:56:58;1.00;99.90
11122;DHT22;5615;49.304;10.576;2022-11-20T02:59:25;1.00;99.90
11122;DHT22;5615;49.304;10.576;2022-11-20T03:01:52;1.10;99.90
11122;DHT22;5615;49.304;10.576;2022-11-20T03:04:19;1.10;99.90
11122;DHT22;5615;49.304;10.576;2022-11-20T03:06:45;1.10;99.90
11122;DHT22;5615;49.304;10.576;2022-11-20T03:09:12;1.10;99.90
11122;DHT22;5615;49.304;10.576;2022-11-20T03:11:39;1.20;99.90
11122;DHT22;5615;49.304;10.576;2022-11-20T03:14:06;1.20;99.90
11122;DHT22;5615;49.304;10.576;2022-11-20T03:16:34;1.20;99.90
11122;DHT22;5615;49.304;10.576;2022-11-20T03:19:01;1.20;99.90
11122;DHT22;5615;49.304;10.576;2022-11-20T03:21:27;1.20;99.90
11122;DHT22;5615;49.304;10.576;2022-11-20T03:23:54;1.30;99.90
11122;DHT22;5615;49.304;10.576;2022-11-20T03:26:22;1.30;99.90
11122;DHT22;5615;49.304;10.576;2022-11-20T03:28:51;1.30;99.90
11122;DHT22;5615;49.304;10.576;2022-11-20T03:31:20;1.40;99.90
11122;DHT22;5615;49.304;10.576;2022-11-20T03:33:48;1.40;99.90
11122;DHT22;5615;49.304;10.576;2022-11-20T03:36:17;1.40;99.90
11122;DHT22;5615;49.304;10.576;2022-11-20T03:38:44;1.30;99.90
11122;DHT22;5615;49.304;10.576;2022-11-20T03:41:14;1.30;99.90
11122;DHT22;5615;49.304;10.576;2022-11-20T03:43:40;1.30;99.90
11122;DHT22;5615;49.304;10.576;2022-11-20T03:46:07;1.30;99.90
11122;DHT22;5615;49.304;10.576;2022-11-20T03:48:34;1.30;99.90
11122;DHT22;5615;49.304;10.576;2022-11-20T03:51:14;1.30;99.90
11122;DHT22;5615;49.304;10.576;2022-11-20T03:53:43;1.30;99.90
11122;DHT22;5615;49.304;10.576;2022-11-20T03:56:11;1.30;99.90
11122;DHT22;5615;49.304;10.576;2022-11-20T03:58:39;1.30;99.90
11122;DHT22;5615;49.304;10.576;2022-11-20T04:01:07;1.30;99.90
11122;DHT22;5615;49.304;10.576;2022-11-20T04:03:34;1.30;99.90
11122;DHT22;5615;49.304;10.576;2022-11-20T04:06:03;1.30;99.90
11122;DHT22;5615;49.304;10.576;2022-11-20T04:08:32;1.30;99.90
11122;DHT22;5615;49.304;10.576;2022-11-20T04:11:08;1.30;99.90
11122;DHT22;5615;49.304;10.576;2022-11-20T04:13:35;1.30;99.90
11122;DHT22;5615;49.304;10.576;2022-11-20T04:16:02;1.30;99.90
11122;DHT22;5615;49.304;10.576;2022-11-20T04:18:29;1.40;99.90
11122;DHT22;5615;49.304;10.576;2022-11-20T04:20:56;1.30;99.90
11122;DHT22;5615;49.304;10.576;2022-11-20T04:23:23;1.30;99.90
11122;DHT22;5615;49.304;10.576;2022-11-20T04:25:51;1.30;99.90
11122;DHT22;5615;49.304;10.576;2022-11-20T04:28:18;1.30;99.90
11122;DHT22;5615;49.304;10.576;2022-11-20T04:30:45;1.30;99.90
11122;DHT22;5615;49.304;10.576;2022-11-20T04:33:12;1.30;99.90
11122;DHT22;5615;49.304;10.576;2022-11-20T04:35:38;1.30;99.90
11122;DHT22;5615;49.304;10.576;2022-11-20T04:38:05;1.30;99.90
11122;DHT22;5615;49.304;10.576;2022-11-20T04:40:32;1.30;99.90
11122;DHT22;5615;49.304;10.576;2022-11-20T04:43:00;1.30;99.90
11122;DHT22;5615;49.304;10.576;2022-11-20T04:45:26;1.30;99.90
11122;DHT22;5615;49.304;10.576;2022-11-20T04:47:53;1.30;99.90
11122;DHT22;5615;49.304;10.576;2022-11-20T04:50:20;1.30;99.90
11122;DHT22;5615;49.304;10.576;2022-11-20T04:52:46;1.30;99.90
11122;DHT22;5615;49.304;10.576;2022-11-20T04:55:13;1.40;99.90
11122;DHT22;5615;49.304;10.576;2022-11-20T04:57:40;1.40;99.90
11122;DHT22;5615;49.304;10.576;2022-11-20T05:00:09;1.40;99.90
11122;DHT22;5615;49.304;10.576;2022-11-20T05:02:36;1.40;99.90
11122;DHT22;5615;49.304;10.576;2022-11-20T05:05:02;1.50;99.90
11122;DHT22;5615;49.304;10.576;2022-11-20T05:07:29;1.50;99.90
11122;DHT22;5615;49.304;10.576;2022-11-20T05:09:56;1.50;99.90
11122;DHT22;5615;49.304;10.576;2022-11-20T05:12:22;1.50;99.90
11122;DHT22;5615;49.304;10.576;2022-11-20T05:14:49;1.50;99.90
11122;DHT22;5615;49.304;10.576;2022-11-20T05:17:17;1.50;99.90
11122;DHT22;5615;49.304;10.576;2022-11-20T05:19:43;1.50;99.90
11122;DHT22;5615;49.304;10.576;2022-11-20T05:22:10;1.50;99.90
11122;DHT22;5615;49.304;10.576;2022-11-20T05:24:37;1.50;99.90
11122;DHT22;5615;49.304;10.576;2022-11-20T05:27:03;1.50;99.90
11122;DHT22;5615;49.304;10.576;2022-11-20T05:29:30;1.50;99.90
11122;DHT22;5615;49.304;10.576;2022-11-20T05:31:57;1.50;99.90
11122;DHT22;5615;49.304;10.576;2022-11-20T05:34:25;1.50;99.90
11122;DHT22;5615;49.304;10.576;2022-11-20T05:36:51;1.50;99.90
11122;DHT22;5615;49.304;10.576;2022-11-20T05:39:18;1.50;99.90
11122;DHT22;5615;49.304;10.576;2022-11-20T05:41:45;1.50;99.90
11122;DHT22;5615;49.304;10.576;2022-11-20T05:44:11;1.50;99.90
11122;DHT22;5615;49.304;10.576;2022-11-20T05:46:38;1.50;99.90
11122;DHT22;5615;49.304;10.576;2022-11-20T05:49:05;1.50;99.90
11122;DHT22;5615;49.304;10.576;2022-11-20T05:51:33;1.50;99.90
11122;DHT22;5615;49.304;10.576;2022-11-20T05:53:59;1.60;99.90
11122;DHT22;5615;49.304;10.576;2022-11-20T05:56:26;1.60;99.90
11122;DHT22;5615;49.304;10.576;2022-11-20T05:58:52;1.60;99.90
11122;DHT22;5615;49.304;10.576;2022-11-20T06:01:21;1.60;99.90
11122;DHT22;5615;49.304;10.576;2022-11-20T06:03:48;1.60;99.90
11122;DHT22;5615;49.304;10.576;2022-11-20T06:06:16;1.60;99.90
11122;DHT22;5615;49.304;10.576;2022-11-20T06:08:45;1.60;99.90
11122;DHT22;5615;49.304;10.576;2022-11-20T06:11:13;1.60;99.90
11122;DHT22;5615;49.304;10.576;2022-11-20T06:13:40;1.70;99.90
11122;DHT22;5615;49.304;10.576;2022-11-20T06:16:07;1.60;99.90
11122;DHT22;5615;49.304;10.576;2022-11-20T06:18:34;1.70;99.90
11122;DHT22;5615;49.304;10.576;2022-11-20T06:21:03;1.90;99.90
11122;DHT22;5615;49.304;10.576;2022-11-20T06:23:30;1.90;99.90
11122;DHT22;5615;49.304;10.576;2022-11-20T06:26:01;1.90;99.90
11122;DHT22;5615;49.304;10.576;2022-11-20T06:28:28;1.80;99.90
11122;DHT22;5615;49.304;10.576;2022-11-20T06:30:55;1.90;99.90
11122;DHT22;5615;49.304;10.576;2022-11-20T06:33:22;1.90;99.90
11122;DHT22;5615;49.304;10.576;2022-11-20T06:35:48;1.90;99.90
11122;DHT22;5615;49.304;10.576;2022-11-20T06:38:15;2.00;99.90
11122;DHT22;5615;49.304;10.576;2022-11-20T06:40:42;2.10;99.90
11122;DHT22;5615;49.304;10.576;2022-11-20T06:43:10;2.10;99.90
11122;DHT22;5615;49.304;10.576;2022-11-20T06:45:37;2.10;99.90
11122;DHT22;5615;49.304;10.576;2022-11-20T06:48:04;2.20;99.90
11122;DHT22;5615;49.304;10.576;2022-11-20T06:50:30;2.20;99.90
11122;DHT22;5615;49.304;10.576;2022-11-20T06:53:00;2.30;99.90
11122;DHT22;5615;49.304;10.576;2022-11-20T06:55:28;2.30;99.90
11122;DHT22;5615;49.304;10.576;2022-11-20T06:57:55;2.40;99.90
11122;DHT22;5615;49.304;10.576;2022-11-20T07:00:23;2.40;99.90
11122;DHT22;5615;49.304;10.576;2022-11-20T07:02:50;2.40;99.90
11122;DHT22;5615;49.304;10.576;2022-11-20T07:05:16;2.50;99.90
11122;DHT22;5615;49.304;10.576;2022-11-20T07:07:43;2.60;99.90
11122;DHT22;5615;49.304;10.576;2022-11-20T07:10:10;2.70;99.90
11122;DHT22;5615;49.304;10.576;2022-11-20T07:12:37;2.90;99.90
11122;DHT22;5615;49.304;10.576;2022-11-20T07:15:04;3.00;99.90
11122;DHT22;5615;49.304;10.576;2022-11-20T07:17:32;3.00;99.90
11122;DHT22;5615;49.304;10.576;2022-11-20T07:19:59;3.10;99.90
11122;DHT22;5615;49.304;10.576;2022-11-20T07:22:25;3.20;99.90
11122;DHT22;5615;49.304;10.576;2022-11-20T07:24:52;3.30;99.90
11122;DHT22;5615;49.304;10.576;2022-11-20T07:27:19;3.30;99.90
11122;DHT22;5615;49.304;10.576;2022-11-20T07:29:45;3.30;99.90
11122;DHT22;5615;49.304;10.576;2022-11-20T07:32:12;3.40;99.90
11122;DHT22;5615;49.304;10.576;2022-11-20T07:34:40;3.50;99.90
11122;DHT22;5615;49.304;10.576;2022-11-20T07:37:06;3.60;99.90
11122;DHT22;5615;49.304;10.576;2022-11-20T07:39:33;3.80;99.90
11122;DHT22;5615;49.304;10.576;2022-11-20T07:42:00;3.80;99.90
11122;DHT22;5615;49.304;10.576;2022-11-20T07:44:26;3.90;99.90
11122;DHT22;5615;49.304;10.576;2022-11-20T07:46:53;4.00;99.90
11122;DHT22;5615;49.304;10.576;2022-11-20T07:49:20;4.10;99.90
11122;DHT22;5615;49.304;10.576;2022-11-20T07:51:50;4.10;99.90
11122;DHT22;5615;49.304;10.576;2022-11-20T07:54:16;4.20;99.90
11122;DHT22;5615;49.304;10.576;2022-11-20T07:56:43;4.20;99.90
11122;DHT22;5615;49.304;10.576;2022-11-20T07:59:10;4.20;99.90
11122;DHT22;5615;49.304;10.576;2022-11-20T08:01:37;4.20;99.90
11122;DHT22;5615;49.304;10.576;2022-11-20T08:04:03;4.20;99.90
11122;DHT22;5615;49.304;10.576;2022-11-20T08:06:30;4.20;99.90
11122;DHT22;5615;49.304;10.576;2022-11-20T08:08:58;4.20;99.90
11122;DHT22;5615;49.304;10.576;2022-11-20T08:11:25;4.20;99.90
11122;DHT22;5615;49.304;10.576;2022-11-20T08:14:09;4.20;99.90
11122;DHT22;5615;49.304;10.576;2022-11-20T08:16:39;4.20;99.90
11122;DHT22;5615;49.304;10.576;2022-11-20T08:19:06;4.30;99.90
11122;DHT22;5615;49.304;10.576;2022-11-20T08:21:33;4.40;99.90
11122;DHT22;5615;49.304;10.576;2022-11-20T08:24:01;4.40;99.90
11122;DHT22;5615;49.304;10.576;2022-11-20T08:26:27;4.40;99.90
11122;DHT22;5615;49.304;10.576;2022-11-20T08:28:54;4.50;99.90
11122;DHT22;5615;49.304;10.576;2022-11-20T08:31:21;4.50;99.90
11122;DHT22;5615;49.304;10.576;2022-11-20T08:33:48;4.50;99.90
11122;DHT22;5615;49.304;10.576;2022-11-20T08:36:15;4.60;99.90
11122;DHT22;5615;49.304;10.576;2022-11-20T08:38:46;4.70;99.90
11122;DHT22;5615;49.304;10.576;2022-11-20T08:41:14;4.80;99.90
11122;DHT22;5615;49.304;10.576;2022-11-20T08:43:52;4.90;99.90
11122;DHT22;5615;49.304;10.576;2022-11-20T08:46:18;4.90;99.90
11122;DHT22;5615;49.304;10.576;2022-11-20T08:48:45;4.80;99.90
11122;DHT22;5615;49.304;10.576;2022-11-20T08:51:12;4.80;99.90
11122;DHT22;5615;49.304;10.576;2022-11-20T08:53:39;4.70;99.90
11122;DHT22;5615;49.304;10.576;2022-11-20T08:56:06;4.70;99.90
11122;DHT22;5615;49.304;10.576;2022-11-20T08:58:34;4.70;99.90
11122;DHT22;5615;49.304;10.576;2022-11-20T09:01:01;4.70;99.90
11122;DHT22;5615;49.304;10.576;2022-11-20T09:03:28;4.70;99.90
11122;DHT22;5615;49.304;10.576;2022-11-20T09:05:57;4.70;99.90
11122;DHT22;5615;49.304;10.576;2022-11-20T09:08:25;4.70;99.90
11122;DHT22;5615;49.304;10.576;2022-11-20T09:10:52;4.70;99.90
11122;DHT22;5615;49.304;10.576;2022-11-20T09:13:18;4.70;99.90
11122;DHT22;5615;49.304;10.576;2022-11-20T09:15:46;4.80;99.90
11122;DHT22;5615;49.304;10.576;2022-11-20T09:18:13;4.80;99.90
11122;DHT22;5615;49.304;10.576;2022-11-20T09:20:40;4.80;99.90
11122;DHT22;5615;49.304;10.576;2022-11-20T09:23:06;4.90;99.90
11122;DHT22;5615;49.304;10.576;2022-11-20T09:25:33;4.90;99.90
11122;DHT22;5615;49.304;10.576;2022-11-20T09:28:00;4.90;99.90
11122;DHT22;5615;49.304;10.576;2022-11-20T09:30:27;4.90;99.90
11122;DHT22;5615;49.304;10.576;2022-11-20T09:32:55;4.90;99.90
11122;DHT22;5615;49.304;10.576;2022-11-20T09:35:21;4.90;99.90
11122;DHT22;5615;49.304;10.576;2022-11-20T09:37:48;5.00;99.90
11122;DHT22;5615;49.304;10.576;2022-11-20T09:40:19;5.00;99.90
11122;DHT22;5615;49.304;10.576;2022-11-20T09:42:54;5.00;99.90
11122;DHT22;5615;49.304;10.576;2022-11-20T09:45:32;5.00;99.90
11122;DHT22;5615;49.304;10.576;2022-11-20T09:48:20;5.00;99.90
11122;DHT22;5615;49.304;10.576;2022-11-20T09:50:55;5.00;99.90
11122;DHT22;5615;49.304;10.576;2022-11-20T09:53:29;5.00;99.90
11122;DHT22;5615;49.304;10.576;2022-11-20T09:55:57;5.00;99.90
11122;DHT22;5615;49.304;10.576;2022-11-20T09:58:29;5.00;99.90
11122;DHT22;5615;49.304;10.576;2022-11-20T10:01:05;5.10;99.90
11122;DHT22;5615;49.304;10.576;2022-11-20T10:03:44;5.10;99.90
11122;DHT22;5615;49.304;10.576;2022-11-20T10:06:16;5.00;99.90
11122;DHT22;5615;49.304;10.576;2022-11-20T10:08:47;5.00;99.90
11122;DHT22;5615;49.304;10.576;2022-11-20T10:11:19;5.00;99.90
11122;DHT22;5615;49.304;10.576;2022-11-20T10:13:54;5.00;99.90
11122;DHT22;5615;49.304;10.576;2022-11-20T10:16:31;5.00;99.90
11122;DHT22;5615;49.304;10.576;2022-11-20T10:19:13;5.10;99.90
11122;DHT22;5615;49.304;10.576;2022-11-20T10:21:56;5.10;99.90
11122;DHT22;5615;49.304;10.576;2022-11-20T10:24:44;5.10;99.90
11122;DHT22;5615;49.304;10.576;2022-11-20T10:27:31;5.10;99.90
11122;DHT22;5615;49.304;10.576;2022-11-20T10:30:06;5.10;99.90
11122;DHT22;5615;49.304;10.576;2022-11-20T10:32:36;5.10;99.90
11122;DHT22;5615;49.304;10.576;2022-11-20T10:35:15;5.10;99.90
11122;DHT22;5615;49.304;10.576;2022-11-20T10:37:47;5.10;99.90
11122;DHT22;5615;49.304;10.576;2022-11-20T10:40:22;5.10;99.90
11122;DHT22;5615;49.304;10.576;2022-11-20T10:42:52;5.10;99.90
11122;DHT22;5615;49.304;10.576;2022-11-20T10:45:31;5.20;99.90
11122;DHT22;5615;49.304;10.576;2022-11-20T10:48:10;5.20;99.90
11122;DHT22;5615;49.304;10.576;2022-11-20T10:50:47;5.20;99.90
11122;DHT22;5615;49.304;10.576;2022-11-20T10:53:22;5.30;99.90
11122;DHT22;5615;49.304;10.576;2022-11-20T10:55:57;5.30;99.90
11122;DHT22;5615;49.304;10.576;2022-11-20T10:58:34;5.30;99.90
11122;DHT22;5615;49.304;10.576;2022-11-20T11:01:04;5.40;99.90
11122;DHT22;5615;49.304;10.576;2022-11-20T11:03:31;5.40;99.90
11122;DHT22;5615;49.304;10.576;2022-11-20T11:06:03;5.40;99.90
11122;DHT22;5615;49.304;10.576;2022-11-20T11:08:37;5.40;99.90
11122;DHT22;5615;49.304;10.576;2022-11-20T11:11:17;5.40;99.90
11122;DHT22;5615;49.304;10.576;2022-11-20T11:13:44;5.50;99.90
11122;DHT22;5615;49.304;10.576;2022-11-20T11:16:21;5.60;99.90
11122;DHT22;5615;49.304;10.576;2022-11-20T11:18:48;5.80;99.90
11122;DHT22;5615;49.304;10.576;2022-11-20T11:21:22;5.60;99.90
11122;DHT22;5615;49.304;10.576;2022-11-20T11:23:58;5.70;99.90
11122;DHT22;5615;49.304;10.576;2022-11-20T11:26:25;5.70;99.90
11122;DHT22;5615;49.304;10.576;2022-11-20T11:28:54;6.30;99.90
11122;DHT22;5615;49.304;10.576;2022-11-20T11:31:25;6.00;99.90
11122;DHT22;5615;49.304;10.576;2022-11-20T11:33:52;5.90;99.90
11122;DHT22;5615;49.304;10.576;2022-11-20T11:36:33;6.00;99.90
11122;DHT22;5615;49.304;10.576;2022-11-20T11:39:01;5.90;99.90
11122;DHT22;5615;49.304;10.576;2022-11-20T11:41:31;5.80;99.90
11122;DHT22;5615;49.304;10.576;2022-11-20T11:44:01;5.80;99.90
11122;DHT22;5615;49.304;10.576;2022-11-20T11:46:53;5.70;99.90
11122;DHT22;5615;49.304;10.576;2022-11-20T11:49:20;5.70;99.90
11122;DHT22;5615;49.304;10.576;2022-11-20T11:52:00;5.70;99.90
11122;DHT22;5615;49.304;10.576;2022-11-20T11:54:34;5.60;99.90
11122;DHT22;5615;49.304;10.576;2022-11-20T11:57:12;5.60;99.90
11122;DHT22;5615;49.304;10.576;2022-11-20T11:59:56;5.60;99.90
11122;DHT22;5615;49.304;10.576;2022-11-20T12:02:31;5.60;99.90
11122;DHT22;5615;49.304;10.576;2022-11-20T12:05:03;5.60;99.90
11122;DHT22;5615;49.304;10.576;2022-11-20T12:07:39;5.20;99.90
11122;DHT22;5615;49.304;10.576;2022-11-20T12:10:19;4.60;99.90
11122;DHT22;5615;49.304;10.576;2022-11-20T12:12:50;4.50;99.90
11122;DHT22;5615;49.304;10.576;2022-11-20T12:15:26;4.50;99.90
11122;DHT22;5615;49.304;10.576;2022-11-20T12:17:53;4.60;99.90
11122;DHT22;5615;49.304;10.576;2022-11-20T12:20:21;4.70;99.90
11122;DHT22;5615;49.304;10.576;2022-11-20T12:22:56;4.80;99.90
11122;DHT22;5615;49.304;10.576;2022-11-20T12:25:28;5.00;99.90
11122;DHT22;5615;49.304;10.576;2022-11-20T12:28:27;5.00;99.90
11122;DHT22;5615;49.304;10.576;2022-11-20T12:31:05;5.10;99.90
11122;DHT22;5615;49.304;10.576;2022-11-20T12:33:49;5.10;99.90
11122;DHT22;5615;49.304;10.576;2022-11-20T12:36:29;5.10;99.90
11122;DHT22;5615;49.304;10.576;2022-11-20T12:39:07;5.10;99.90
11122;DHT22;5615;49.304;10.576;2022-11-20T12:42:02;5.10;99.90
11122;DHT22;5615;49.304;10.576;2022-11-20T12:45:01;5.00;99.90
11122;DHT22;5615;49.304;10.576;2022-11-20T12:50:46;5.00;99.90
11122;DHT22;5615;49.304;10.576;2022-11-20T12:53:31;5.00;99.90
11122;DHT22;5615;49.304;10.576;2022-11-20T12:56:05;5.00;99.90
11122;DHT22;5615;49.304;10.576;2022-11-20T12:58:44;5.00;99.90
11122;DHT22;5615;49.304;10.576;2022-11-20T13:01:21;5.10;99.90
11122;DHT22;5615;49.304;10.576;2022-11-20T13:04:12;5.20;99.90
11122;DHT22;5615;49.304;10.576;2022-11-20T13:06:41;5.20;99.90
11122;DHT22;5615;49.304;10.576;2022-11-20T13:09:12;5.20;99.90
11122;DHT22;5615;49.304;10.576;2022-11-20T13:11:44;5.20;99.90
11122;DHT22;5615;49.304;10.576;2022-11-20T13:14:24;5.20;99.90
11122;DHT22;5615;49.304;10.576;2022-11-20T13:16:57;5.20;99.90
11122;DHT22;5615;49.304;10.576;2022-11-20T13:19:25;5.30;99.90
11122;DHT22;5615;49.304;10.576;2022-11-20T13:21:54;5.40;99.90
11122;DHT22;5615;49.304;10.576;2022-11-20T13:24:25;5.40;99.90
11122;DHT22;5615;49.304;10.576;2022-11-20T13:27:21;5.40;99.90
11122;DHT22;5615;49.304;10.576;2022-11-20T13:30:00;5.40;99.90
11122;DHT22;5615;49.304;10.576;2022-11-20T13:32:28;5.40;99.90
11122;DHT22;5615;49.304;10.576;2022-11-20T13:34:59;5.40;99.90
11122;DHT22;5615;49.304;10.576;2022-11-20T13:37:31;5.20;99.90
11122;DHT22;5615;49.304;10.576;2022-11-20T13:40:20;5.00;99.90
11122;DHT22;5615;49.304;10.576;2022-11-20T13:42:56;4.80;99.90
11122;DHT22;5615;49.304;10.576;2022-11-20T13:45:27;4.70;99.90
11122;DHT22;5615;49.304;10.576;2022-11-20T13:47:55;4.60;99.90
11122;DHT22;5615;49.304;10.576;2022-11-20T13:50:39;4.60;99.90
11122;DHT22;5615;49.304;10.576;2022-11-20T13:53:19;4.60;99.90
11122;DHT22;5615;49.304;10.576;2022-11-20T13:55:54;4.50;99.90
11122;DHT22;5615;49.304;10.576;2022-11-20T13:58:31;4.40;99.90
11122;DHT22;5615;49.304;10.576;2022-11-20T14:01:09;4.40;99.90
11122;DHT22;5615;49.304;10.576;2022-11-20T14:03:36;4.50;99.90
11122;DHT22;5615;49.304;10.576;2022-11-20T14:06:11;4.50;99.90
11122;DHT22;5615;49.304;10.576;2022-11-20T14:08:41;4.60;99.90
11122;DHT22;5615;49.304;10.576;2022-11-20T14:11:15;4.60;99.90
11122;DHT22;5615;49.304;10.576;2022-11-20T14:13:54;4.70;99.90
11122;DHT22;5615;49.304;10.576;2022-11-20T14:16:21;4.80;99.90
11122;DHT22;5615;49.304;10.576;2022-11-20T14:18:48;4.80;99.90
11122;DHT22;5615;49.304;10.576;2022-11-20T14:21:22;4.80;99.90
11122;DHT22;5615;49.304;10.576;2022-11-20T14:23:51;4.70;99.90
11122;DHT22;5615;49.304;10.576;2022-11-20T14:26:18;4.40;99.90
11122;DHT22;5615;49.304;10.576;2022-11-20T14:28:48;4.20;99.90
11122;DHT22;5615;49.304;10.576;2022-11-20T14:31:22;4.10;99.90
11122;DHT22;5615;49.304;10.576;2022-11-20T14:33:50;4.00;99.90
11122;DHT22;5615;49.304;10.576;2022-11-20T14:36:19;4.10;99.90
11122;DHT22;5615;49.304;10.576;2022-11-20T14:38:46;4.10;99.90
11122;DHT22;5615;49.304;10.576;2022-11-20T14:41:18;4.10;99.90
11122;DHT22;5615;49.304;10.576;2022-11-20T14:43:46;4.20;99.90
11122;DHT22;5615;49.304;10.576;2022-11-20T14:46:14;4.20;99.90
11122;DHT22;5615;49.304;10.576;2022-11-20T14:48:45;4.20;99.90
11122;DHT22;5615;49.304;10.576;2022-11-20T14:51:23;4.20;99.90
11122;DHT22;5615;49.304;10.576;2022-11-20T14:53:49;4.20;99.90
11122;DHT22;5615;49.304;10.576;2022-11-20T14:56:21;4.20;99.90
11122;DHT22;5615;49.304;10.576;2022-11-20T14:58:55;4.20;99.90
11122;DHT22;5615;49.304;10.576;2022-11-20T15:01:26;4.20;99.90
11122;DHT22;5615;49.304;10.576;2022-11-20T15:04:00;4.30;99.90
11122;DHT22;5615;49.304;10.576;2022-11-20T15:06:27;4.30;99.90
11122;DHT22;5615;49.304;10.576;2022-11-20T15:08:54;4.40;99.90
11122;DHT22;5615;49.304;10.576;2022-11-20T15:11:27;4.40;99.90
11122;DHT22;5615;49.304;10.576;2022-11-20T15:13:54;4.40;99.90
11122;DHT22;5615;49.304;10.576;2022-11-20T15:16:22;4.50;99.90
11122;DHT22;5615;49.304;10.576;2022-11-20T15:18:50;4.40;99.90
11122;DHT22;5615;49.304;10.576;2022-11-20T15:21:19;4.30;99.90
11122;DHT22;5615;49.304;10.576;2022-11-20T15:23:47;4.30;99.90
11122;DHT22;5615;49.304;10.576;2022-11-20T15:26:17;4.30;99.90
11122;DHT22;5615;49.304;10.576;2022-11-20T15:28:46;4.30;99.90
11122;DHT22;5615;49.304;10.576;2022-11-20T15:31:14;4.30;99.90
11122;DHT22;5615;49.304;10.576;2022-11-20T15:33:41;4.30;99.90
11122;DHT22;5615;49.304;10.576;2022-11-20T15:36:08;4.20;99.90
11122;DHT22;5615;49.304;10.576;2022-11-20T15:38:36;4.20;99.90
11122;DHT22;5615;49.304;10.576;2022-11-20T15:41:03;4.10;99.90
11122;DHT22;5615;49.304;10.576;2022-11-20T15:43:29;4.10;99.90
11122;DHT22;5615;49.304;10.576;2022-11-20T15:45:59;4.00;99.90
11122;DHT22;5615;49.304;10.576;2022-11-20T15:48:29;4.00;99.90
11122;DHT22;5615;49.304;10.576;2022-11-20T15:50:58;4.00;99.90
11122;DHT22;5615;49.304;10.576;2022-11-20T15:53:27;4.10;99.90
11122;DHT22;5615;49.304;10.576;2022-11-20T15:55:55;4.00;99.90
11122;DHT22;5615;49.304;10.576;2022-11-20T15:58:21;3.90;99.90
11122;DHT22;5615;49.304;10.576;2022-11-20T16:00:50;3.90;99.90
11122;DHT22;5615;49.304;10.576;2022-11-20T16:03:17;4.00;99.90
11122;DHT22;5615;49.304;10.576;2022-11-20T16:05:44;4.00;99.90